createdAt,value
2022-08-08T00:01:00.800Z,4.70
2022-08-08T00:03:43.298Z,4.43
2022-08-08T00:06:28.557Z,4.60
2022-08-08T00:09:07.637Z,4.97
2022-08-08T00:11:47.095Z,5.17
2022-08-08T00:14:48.663Z,5.30
2022-08-08T00:17:25.528Z,5.90
2022-08-08T00:20:07.383Z,6.50
2022-08-08T00:22:47.368Z,6.30
2022-08-08T00:25:18.114Z,6.40
2022-08-08T00:27:49.468Z,6.40
2022-08-08T00:30:20.610Z,6.30
2022-08-08T00:32:53.492Z,5.40
2022-08-08T00:35:28.880Z,5.83
2022-08-08T00:38:03.348Z,5.67
2022-08-08T00:41:07.003Z,5.30
2022-08-08T00:43:59.179Z,5.97
2022-08-08T00:46:57.189Z,6.43
2022-08-08T00:49:37.898Z,6.17
2022-08-08T00:52:20.028Z,6.90
2022-08-08T00:55:05.954Z,6.27
2022-08-08T00:58:12.711Z,6.40
2022-08-08T01:00:50.445Z,7.27
2022-08-08T01:04:02.094Z,6.20
2022-08-08T01:06:49.007Z,6.63
2022-08-08T01:09:35.591Z,6.73
2022-08-08T01:12:39.222Z,6.00
2022-08-08T01:15:44.389Z,6.63
2022-08-08T01:18:51.121Z,6.27
2022-08-08T01:22:07.323Z,6.47
2022-08-08T01:24:53.912Z,6.87
2022-08-08T01:27:44.369Z,6.90
2022-08-08T01:30:31.315Z,7.60
2022-08-08T01:33:16.203Z,6.53
2022-08-08T01:36:16.948Z,7.23
2022-08-08T01:39:00.584Z,8.07
2022-08-08T01:41:34.491Z,7.13
2022-08-08T01:44:13.547Z,7.50
2022-08-08T01:46:47.496Z,7.57
2022-08-08T01:49:22.956Z,7.17
2022-08-08T01:52:54.696Z,7.17
2022-08-08T01:55:27.164Z,7.20
2022-08-08T01:58:11.517Z,7.33
2022-08-08T02:00:48.589Z,7.03
2022-08-08T02:03:55.719Z,7.53
2022-08-08T02:06:33.113Z,7.30
2022-08-08T02:09:17.655Z,7.00
2022-08-08T02:11:52.720Z,7.13
2022-08-08T02:14:31.157Z,7.77
2022-08-08T02:17:04.402Z,8.13
2022-08-08T02:20:07.218Z,7.63
2022-08-08T02:22:33.866Z,7.50
2022-08-08T02:25:11.827Z,7.50
2022-08-08T02:27:48.119Z,7.53
2022-08-08T02:30:21.694Z,7.43
2022-08-08T02:33:07.537Z,7.33
2022-08-08T02:36:04.909Z,7.70
2022-08-08T02:38:49.099Z,7.40
2022-08-08T02:41:58.942Z,7.80
2022-08-08T02:44:56.576Z,8.17
2022-08-08T02:47:38.826Z,7.80
2022-08-08T02:50:25.252Z,7.77
2022-08-08T02:53:01.042Z,8.00
2022-08-08T02:56:01.586Z,7.73
2022-08-08T02:59:02.962Z,7.90
2022-08-08T03:02:06.627Z,7.87
2022-08-08T03:05:04.228Z,7.73
2022-08-08T03:07:58.126Z,7.50
2022-08-08T03:10:44.273Z,7.73
2022-08-08T03:15:59.702Z,8.67
2022-08-08T03:16:43.436Z,7.97
2022-08-08T03:19:25.338Z,7.97
2022-08-08T03:21:58.242Z,7.50
2022-08-08T03:24:29.350Z,8.13
2022-08-08T03:27:00.578Z,8.50
2022-08-08T03:29:55.335Z,7.80
2022-08-08T03:32:41.395Z,7.40
2022-08-08T03:35:11.734Z,8.67
2022-08-08T03:38:54.244Z,8.33
2022-08-08T03:40:32.059Z,8.10
2022-08-08T03:43:16.784Z,8.57
2022-08-08T03:46:07.276Z,7.63
2022-08-08T03:49:30.265Z,8.10
2022-08-08T03:51:40.172Z,7.37
2022-08-08T03:54:15.591Z,7.37
2022-08-08T03:58:09.633Z,7.80
2022-08-08T04:00:02.475Z,8.17
2022-08-08T04:02:47.008Z,8.83
2022-08-08T04:05:19.590Z,8.23
2022-08-08T04:07:57.986Z,8.63
2022-08-08T04:10:32.382Z,8.97
2022-08-08T04:13:17.287Z,9.03
2022-08-08T04:15:55.138Z,9.13
2022-08-08T04:18:32.236Z,8.80
2022-08-08T04:21:00.901Z,8.80
2022-08-08T04:23:33.337Z,8.77
2022-08-08T04:26:18.081Z,9.13
2022-08-08T04:28:49.463Z,9.50
2022-08-08T04:31:56.837Z,8.90
2022-08-08T04:34:11.585Z,8.73
2022-08-08T04:36:40.318Z,8.80
2022-08-08T04:40:04.226Z,9.77
2022-08-08T04:41:57.283Z,9.40
2022-08-08T04:44:27.153Z,10.30
2022-08-08T04:46:55.851Z,9.73
2022-08-08T04:49:28.702Z,10.60
2022-08-08T04:51:57.874Z,10.60
2022-08-08T04:54:38.200Z,9.97
2022-08-08T04:57:08.987Z,10.03
2022-08-08T04:59:42.214Z,10.03
2022-08-08T05:02:13.403Z,10.00
2022-08-08T05:04:44.485Z,10.57
2022-08-08T05:07:14.981Z,9.50
2022-08-08T05:09:43.837Z,9.53
2022-08-08T05:12:20.817Z,9.67
2022-08-08T05:14:52.332Z,10.30
2022-08-08T05:17:21.745Z,10.40
2022-08-08T05:20:11.293Z,10.57
2022-08-08T05:22:38.626Z,11.77
2022-08-08T05:25:07.530Z,11.80
2022-08-08T05:27:41.523Z,11.47
2022-08-08T05:30:14.444Z,11.47
2022-08-08T05:32:43.456Z,11.23
2022-08-08T05:35:13.625Z,13.07
2022-08-08T05:37:53.061Z,13.20
2022-08-08T05:40:27.931Z,12.70
2022-08-08T05:42:59.904Z,12.07
2022-08-08T05:45:43.127Z,12.83
2022-08-08T05:48:28.342Z,12.37
2022-08-08T05:50:58.835Z,13.47
2022-08-08T05:54:24.350Z,13.00
2022-08-08T05:56:16.583Z,13.10
2022-08-08T05:58:58.044Z,12.83
2022-08-08T06:01:56.656Z,14.03
2022-08-08T06:04:25.754Z,13.23
2022-08-08T06:06:56.593Z,13.80
2022-08-08T06:09:41.561Z,13.13
2022-08-08T06:12:30.991Z,12.83
2022-08-08T06:15:02.718Z,13.20
2022-08-08T06:17:51.157Z,13.00
2022-08-08T06:20:21.448Z,13.77
2022-08-08T06:22:51.430Z,12.00
2022-08-08T06:26:35.733Z,12.73
2022-08-08T06:28:12.928Z,12.93
2022-08-08T06:30:41.594Z,12.90
2022-08-08T06:33:15.177Z,11.73
2022-08-08T06:36:06.869Z,11.17
2022-08-08T06:38:39.395Z,10.10
2022-08-08T06:41:13.067Z,9.50
2022-08-08T06:43:47.632Z,10.07
2022-08-08T06:46:25.943Z,9.60
2022-08-08T06:49:00.146Z,9.50
2022-08-08T06:51:31.175Z,10.10
2022-08-08T06:54:15.809Z,9.93
2022-08-08T06:56:47.133Z,8.63
2022-08-08T06:59:20.017Z,8.67
2022-08-08T07:02:26.722Z,8.83
2022-08-08T07:04:52.152Z,7.88
2022-08-08T07:07:24.025Z,8.30
2022-08-08T07:09:59.970Z,8.27
2022-08-08T07:12:33.572Z,7.63
2022-08-08T07:15:05.410Z,7.10
2022-08-08T07:18:00.927Z,7.60
2022-08-08T07:20:29.260Z,7.68
2022-08-08T07:23:02.953Z,7.10
2022-08-08T07:25:34.749Z,7.28
2022-08-08T07:28:08.284Z,6.80
2022-08-08T07:30:39.835Z,6.78
2022-08-08T07:33:11.815Z,6.05
2022-08-08T07:35:48.641Z,5.95
2022-08-08T07:38:25.396Z,5.65
2022-08-08T07:40:58.982Z,6.07
2022-08-08T07:43:35.369Z,5.95
2022-08-08T07:46:23.450Z,5.22
2022-08-08T07:48:52.727Z,4.95
2022-08-08T07:51:44.973Z,5.78
2022-08-08T07:54:26.913Z,5.28
2022-08-08T07:57:01.916Z,5.15
2022-08-08T07:59:37.576Z,4.68
2022-08-08T08:02:35.535Z,5.30
2022-08-08T08:04:58.096Z,4.80
2022-08-08T08:07:37.711Z,5.10
2022-08-08T08:10:08.182Z,5.03
2022-08-08T08:12:43.818Z,4.65
2022-08-08T08:15:15.219Z,4.45
2022-08-08T08:17:48.772Z,4.70
2022-08-08T08:20:20.712Z,4.70
2022-08-08T08:22:50.714Z,4.10
2022-08-08T08:25:32.921Z,3.70
2022-08-08T08:28:09.221Z,3.50
2022-08-08T08:30:38.560Z,3.83
2022-08-08T08:33:11.147Z,3.60
2022-08-08T08:36:19.181Z,3.75
2022-08-08T08:38:31.687Z,3.60
2022-08-08T08:41:00.356Z,3.50
2022-08-08T08:43:32.748Z,3.20
2022-08-08T08:46:03.323Z,3.53
2022-08-08T08:48:33.064Z,3.70
2022-08-08T08:51:03.288Z,3.00
2022-08-08T08:54:00.006Z,3.38
2022-08-08T08:56:25.522Z,3.20
2022-08-08T08:59:05.958Z,3.05
2022-08-08T09:01:45.918Z,2.95
2022-08-08T09:04:31.594Z,3.00
2022-08-08T09:07:12.149Z,3.10
2022-08-08T09:09:47.815Z,3.10
2022-08-08T09:12:21.221Z,3.40
2022-08-08T09:14:51.465Z,3.22
2022-08-08T09:17:23.737Z,3.65
2022-08-08T09:22:01.640Z,3.28
2022-08-08T09:23:03.110Z,3.30
2022-08-08T09:25:47.493Z,3.30
2022-08-08T09:28:38.237Z,3.28
2022-08-08T09:31:12.228Z,3.15
2022-08-08T09:34:05.995Z,3.03
2022-08-08T09:36:36.111Z,3.08
2022-08-08T09:39:15.313Z,2.90
2022-08-08T09:41:55.123Z,3.08
2022-08-08T09:44:43.127Z,3.00
2022-08-08T09:47:27.005Z,3.13
2022-08-08T09:50:04.743Z,3.20
2022-08-08T09:52:56.387Z,3.08
2022-08-08T09:55:51.270Z,2.92
2022-08-08T09:58:25.756Z,3.00
2022-08-08T10:00:59.013Z,3.10
2022-08-08T10:03:31.386Z,3.10
2022-08-08T10:06:01.111Z,3.10
2022-08-08T10:08:33.656Z,2.85
2022-08-08T10:11:12.204Z,3.20
2022-08-08T10:13:59.075Z,3.08
2022-08-08T10:16:38.850Z,3.00
2022-08-08T10:19:08.862Z,3.20
2022-08-08T10:21:42.650Z,3.05
2022-08-08T10:24:28.759Z,2.92
2022-08-08T10:27:01.157Z,3.15
2022-08-08T10:29:59.245Z,3.40
2022-08-08T10:32:37.342Z,2.92
2022-08-08T10:35:10.597Z,2.97
2022-08-08T10:37:44.391Z,2.70
2022-08-08T10:40:16.988Z,2.88
2022-08-08T10:42:49.490Z,2.80
2022-08-08T10:45:18.410Z,3.00
2022-08-08T10:47:55.662Z,2.72
2022-08-08T10:50:24.956Z,3.00
2022-08-08T10:53:02.620Z,3.35
2022-08-08T10:55:41.097Z,3.30
2022-08-08T10:58:15.667Z,3.10
2022-08-08T11:00:52.620Z,2.70
2022-08-08T11:04:01.432Z,2.90
2022-08-08T11:06:34.901Z,3.03
2022-08-08T11:09:15.538Z,2.38
2022-08-08T11:12:05.537Z,2.50
2022-08-08T11:14:49.698Z,2.85
2022-08-08T11:17:18.566Z,2.60
2022-08-08T11:20:10.906Z,2.42
2022-08-08T11:22:42.195Z,2.75
2022-08-08T11:25:14.239Z,3.00
2022-08-08T11:27:46.678Z,3.08
2022-08-08T11:30:24.697Z,3.13
2022-08-08T11:32:56.736Z,2.92
2022-08-08T11:35:37.795Z,2.40
2022-08-08T11:38:36.289Z,2.47
2022-08-08T11:40:59.161Z,2.70
2022-08-08T11:43:39.107Z,2.45
2022-08-08T11:46:13.706Z,2.75
2022-08-08T11:48:47.227Z,2.70
2022-08-08T11:51:37.299Z,2.70
2022-08-08T11:54:26.860Z,2.88
2022-08-08T11:56:57.871Z,2.67
2022-08-08T11:59:57.715Z,2.35
2022-08-08T12:02:32.640Z,2.38
2022-08-08T12:05:02.377Z,2.50
2022-08-08T12:07:32.252Z,2.72
2022-08-08T12:10:12.789Z,2.50
2022-08-08T12:12:45.811Z,2.50
2022-08-08T12:15:27.148Z,2.30
2022-08-08T12:17:55.740Z,2.40
2022-08-08T12:20:24.623Z,2.53
2022-08-08T12:22:57.138Z,2.50
2022-08-08T12:25:30.011Z,2.45
2022-08-08T12:28:15.770Z,2.25
2022-08-08T12:30:47.771Z,2.60
2022-08-08T12:33:20.662Z,2.40
2022-08-08T12:35:52.313Z,2.30
2022-08-08T12:38:30.427Z,2.50
2022-08-08T12:41:07.006Z,2.80
2022-08-08T12:44:00.507Z,2.78
2022-08-08T12:46:29.963Z,2.53
2022-08-08T12:51:58.363Z,2.83
2022-08-08T12:54:33.297Z,2.65
2022-08-08T12:57:15.032Z,2.97
2022-08-08T13:00:04.422Z,2.45
2022-08-08T13:02:37.964Z,2.50
2022-08-08T13:05:26.843Z,2.55
2022-08-08T13:08:16.719Z,2.63
2022-08-08T13:10:55.486Z,2.40
2022-08-08T13:13:36.759Z,2.72
2022-08-08T13:16:19.388Z,2.53
2022-08-08T13:18:58.429Z,2.75
2022-08-08T13:21:53.752Z,2.88
2022-08-08T13:24:38.487Z,2.53
2022-08-08T13:27:12.580Z,2.75
2022-08-08T13:29:50.617Z,2.67
2022-08-08T13:32:27.685Z,2.80
2022-08-08T13:34:57.871Z,2.90
2022-08-08T13:38:05.488Z,2.95
2022-08-08T13:40:27.445Z,2.80
2022-08-08T13:42:58.444Z,2.90
2022-08-08T13:45:27.399Z,2.78
2022-08-08T13:47:59.867Z,2.38
2022-08-08T13:50:49.014Z,2.80
2022-08-08T13:53:28.101Z,2.90
2022-08-08T13:56:05.328Z,2.90
2022-08-08T13:58:35.763Z,2.45
2022-08-08T14:01:14.959Z,2.65
2022-08-08T14:03:55.094Z,3.00
2022-08-08T14:06:32.976Z,2.75
2022-08-08T14:09:25.134Z,2.90
2022-08-08T14:11:52.077Z,3.00
2022-08-08T14:14:25.552Z,2.80
2022-08-08T14:17:00.481Z,3.03
2022-08-08T14:19:58.102Z,2.70
2022-08-08T14:22:28.759Z,2.80
2022-08-08T14:24:59.668Z,2.92
2022-08-08T14:27:30.257Z,2.92
2022-08-08T14:30:16.905Z,2.60
2022-08-08T14:32:53.062Z,2.70
2022-08-08T14:35:23.441Z,2.80
2022-08-08T14:37:59.856Z,2.85
2022-08-08T14:40:29.987Z,2.85
2022-08-08T14:42:59.619Z,2.67
2022-08-08T14:45:47.129Z,2.88
2022-08-08T14:48:34.700Z,2.70
2022-08-08T14:51:07.924Z,2.60
2022-08-08T14:53:55.165Z,3.10
2022-08-08T14:56:26.094Z,2.60
2022-08-08T14:58:56.256Z,2.50
2022-08-08T15:01:40.983Z,2.70
2022-08-08T15:04:10.590Z,2.80
2022-08-08T15:06:42.547Z,2.90
2022-08-08T15:09:22.546Z,3.05
2022-08-08T15:11:52.988Z,2.70
2022-08-08T15:14:25.247Z,2.70
2022-08-08T15:16:56.974Z,2.80
2022-08-08T15:19:28.111Z,2.78
2022-08-08T15:21:57.809Z,2.60
2022-08-08T15:24:31.345Z,2.63
2022-08-08T15:27:20.170Z,2.85
2022-08-08T15:29:49.736Z,2.42
2022-08-08T15:32:23.127Z,2.30
2022-08-08T15:34:52.985Z,2.80
2022-08-08T15:37:21.475Z,2.50
2022-08-08T15:40:03.999Z,2.83
2022-08-08T15:42:33.234Z,2.60
2022-08-08T15:45:02.313Z,2.50
2022-08-08T15:47:34.943Z,2.30
2022-08-08T15:50:03.411Z,2.70
2022-08-08T15:52:33.291Z,2.53
2022-08-08T15:55:02.777Z,2.50
2022-08-08T15:57:35.245Z,2.50
2022-08-08T16:00:17.866Z,2.40
2022-08-08T16:02:55.654Z,2.10
2022-08-08T16:05:35.612Z,2.50
2022-08-08T16:08:14.857Z,2.60
2022-08-08T16:13:10.729Z,2.70
2022-08-08T16:16:22.196Z,2.33
2022-08-08T16:18:56.502Z,2.00
2022-08-08T16:21:28.005Z,2.72
2022-08-08T16:23:58.139Z,2.30
2022-08-08T16:26:32.839Z,1.77
2022-08-08T16:29:03.427Z,2.15
2022-08-08T16:31:37.344Z,2.30
2022-08-08T16:34:07.492Z,2.28
2022-08-08T16:36:37.599Z,2.20
2022-08-08T16:39:16.926Z,2.10
2022-08-08T16:42:01.442Z,2.13
2022-08-08T16:44:33.614Z,2.28
2022-08-08T16:47:17.265Z,2.15
2022-08-08T16:49:47.711Z,2.00
2022-08-08T16:55:05.142Z,2.00
2022-08-08T16:55:34.316Z,2.00
2022-08-08T16:58:16.137Z,1.90
2022-08-08T17:00:49.215Z,2.13
2022-08-08T17:03:25.185Z,2.10
2022-08-08T17:06:37.487Z,2.08
2022-08-08T17:08:58.682Z,2.13
2022-08-08T17:11:28.334Z,2.20
2022-08-08T17:14:17.704Z,2.28
2022-08-08T17:16:57.517Z,2.10
2022-08-08T17:19:28.758Z,2.00
2022-08-08T17:22:01.135Z,2.22
2022-08-08T17:24:30.716Z,2.10
2022-08-08T17:26:59.424Z,1.85
2022-08-08T17:29:28.345Z,1.80
2022-08-08T17:32:04.375Z,1.98
2022-08-08T17:34:36.070Z,1.70
2022-08-08T17:37:18.963Z,1.70
2022-08-08T17:40:08.898Z,1.75
2022-08-08T17:42:36.406Z,1.70
2022-08-08T17:45:06.261Z,1.65
2022-08-08T17:47:40.284Z,1.67
2022-08-08T17:50:10.106Z,1.50
2022-08-08T17:52:43.144Z,1.67
2022-08-08T17:56:04.775Z,1.70
2022-08-08T17:58:02.073Z,1.42
2022-08-08T18:00:31.811Z,1.50
2022-08-08T18:03:09.131Z,1.42
2022-08-08T18:05:48.341Z,1.42
2022-08-08T18:08:36.773Z,1.25
2022-08-08T18:11:15.232Z,1.40
2022-08-08T18:13:44.402Z,1.50
2022-08-08T18:16:17.111Z,1.60
2022-08-08T18:18:54.019Z,1.40
2022-08-08T18:21:59.050Z,1.50
2022-08-08T18:24:19.144Z,1.33
2022-08-08T18:26:53.675Z,1.70
2022-08-08T18:29:29.496Z,1.50
2022-08-08T18:32:03.477Z,1.73
2022-08-08T18:34:32.705Z,1.50
2022-08-08T18:37:04.664Z,1.90
2022-08-08T18:39:36.993Z,1.60
2022-08-08T18:42:09.127Z,1.60
2022-08-08T18:44:55.987Z,1.63
2022-08-08T18:47:26.964Z,1.80
2022-08-08T18:49:58.502Z,1.73
2022-08-08T18:52:29.867Z,1.50
2022-08-08T18:55:10.452Z,1.58
2022-08-08T18:57:41.847Z,1.58
2022-08-08T19:00:16.761Z,1.75
2022-08-08T19:02:55.619Z,1.60
2022-08-08T19:05:32.130Z,1.70
2022-08-08T19:08:10.211Z,1.70
2022-08-08T19:10:55.950Z,1.70
2022-08-08T19:13:25.327Z,1.60
2022-08-08T19:16:09.258Z,1.73
2022-08-08T19:19:02.033Z,1.70
2022-08-08T19:21:33.245Z,1.77
2022-08-08T19:24:42.215Z,1.42
2022-08-08T19:27:06.881Z,1.73
2022-08-08T19:29:40.640Z,1.63
2022-08-08T19:32:13.200Z,1.45
2022-08-08T19:34:49.361Z,1.90
2022-08-08T19:37:42.273Z,1.45
2022-08-08T19:40:14.522Z,1.70
2022-08-08T19:42:59.721Z,1.67
2022-08-08T19:45:59.185Z,1.40
2022-08-08T19:48:29.486Z,1.48
2022-08-08T19:51:00.930Z,1.63
2022-08-08T19:53:53.437Z,1.60
2022-08-08T19:56:39.518Z,1.80
2022-08-08T19:59:07.549Z,1.70
2022-08-08T20:02:02.707Z,1.30
2022-08-08T20:04:26.931Z,1.52
2022-08-08T20:06:56.817Z,1.65
2022-08-08T20:09:25.542Z,1.50
2022-08-08T20:11:58.883Z,1.60
2022-08-08T20:14:33.810Z,1.80
2022-08-08T20:17:06.060Z,1.60
2022-08-08T20:19:43.423Z,1.65
2022-08-08T20:22:13.207Z,1.60
2022-08-08T20:24:49.572Z,1.35
2022-08-08T20:27:20.679Z,1.65
2022-08-08T20:30:00.375Z,1.40
2022-08-08T20:32:31.943Z,1.60
2022-08-08T20:35:02.174Z,1.70
2022-08-08T20:37:46.688Z,1.50
2022-08-08T20:40:33.509Z,1.48
2022-08-08T20:45:55.179Z,1.52
2022-08-08T20:48:28.486Z,1.60
2022-08-08T20:50:57.255Z,1.30
2022-08-08T20:53:59.936Z,1.60
2022-08-08T20:56:14.783Z,1.70
2022-08-08T20:58:47.625Z,1.63
2022-08-08T21:01:20.085Z,1.50
2022-08-08T21:04:00.284Z,1.60
2022-08-08T21:06:52.996Z,1.70
2022-08-08T21:09:18.690Z,1.60
2022-08-08T21:11:51.834Z,1.50
2022-08-08T21:14:33.702Z,1.73
2022-08-08T21:17:05.876Z,1.58
2022-08-08T21:19:45.199Z,1.55
2022-08-08T21:22:15.326Z,1.52
2022-08-08T21:24:52.560Z,1.52
2022-08-08T21:28:06.251Z,1.77
2022-08-08T21:30:16.431Z,1.42
2022-08-08T21:32:52.506Z,1.50
2022-08-08T21:36:17.116Z,1.55
2022-08-08T21:38:16.843Z,1.52
2022-08-08T21:40:55.052Z,1.52
2022-08-08T21:43:25.250Z,1.65
2022-08-08T21:48:00.820Z,1.70
2022-08-08T21:48:44.663Z,1.85
2022-08-08T21:51:20.310Z,1.73
2022-08-08T21:54:33.714Z,1.50
2022-08-08T21:56:59.418Z,1.70
2022-08-08T21:59:28.288Z,1.70
2022-08-08T22:02:16.025Z,1.48
2022-08-08T22:04:47.867Z,2.00
2022-08-08T22:07:19.165Z,1.77
2022-08-08T22:09:48.187Z,1.75
2022-08-08T22:12:16.886Z,1.50
2022-08-08T22:14:49.886Z,1.80
2022-08-08T22:17:19.255Z,1.60
2022-08-08T22:20:12.153Z,1.70
2022-08-08T22:22:38.521Z,1.70
2022-08-08T22:25:17.842Z,1.80
2022-08-08T22:28:02.550Z,1.90
2022-08-08T22:30:33.757Z,1.98
2022-08-08T22:33:03.157Z,1.80
2022-08-08T22:36:04.982Z,1.90
2022-08-08T22:38:48.788Z,1.90
2022-08-08T22:41:21.102Z,1.80
2022-08-08T22:44:02.235Z,1.70
2022-08-08T22:46:32.991Z,2.00
2022-08-08T22:49:01.710Z,2.00
2022-08-08T22:51:35.000Z,2.10
2022-08-08T22:54:33.286Z,1.90
2022-08-08T22:57:00.473Z,1.90
2022-08-08T22:59:36.182Z,2.07
2022-08-08T23:02:19.738Z,1.97
2022-08-08T23:04:57.636Z,1.83
2022-08-08T23:07:51.446Z,1.93
2022-08-08T23:10:19.773Z,1.70
2022-08-08T23:12:51.666Z,2.07
2022-08-08T23:16:38.157Z,1.90
2022-08-08T23:18:11.585Z,2.10
2022-08-08T23:20:43.476Z,2.20
2022-08-08T23:23:12.874Z,2.40
2022-08-08T23:25:47.780Z,2.20
2022-08-08T23:28:18.044Z,2.33
2022-08-08T23:30:47.910Z,2.50
2022-08-08T23:33:20.930Z,2.57
2022-08-08T23:36:09.207Z,2.20
2022-08-08T23:38:43.981Z,2.00
2022-08-08T23:41:17.441Z,2.57
2022-08-08T23:43:54.215Z,2.43
2022-08-08T23:49:01.957Z,2.40
2022-08-08T23:49:18.400Z,2.57
2022-08-08T23:52:07.254Z,2.40
2022-08-08T23:54:41.602Z,2.10
2022-08-08T23:57:39.403Z,2.50
